Terminal Aerodrome Forecast
Issued by NWS

Home | Current Version | Previous Version | Text Only | Print | Product List | Glossary On
Versions: 1 2 3 4 5 6 7 8 9 10 11 12 13 14 15 16 17 18 19 20 21 22 23 24
000
FTUS41 KOKX 132143 AAA
TAFSWF
TAF AMD
KSWF 132143Z 1322/1424 29020G30KT P6SM FEW050
     FM132300 29016G24KT P6SM FEW045 FEW150
     FM140200 29012G20KT P6SM BKN050
     FM140400 26009KT 4SM -SN OVC035
     FM140600 VRB03KT 1SM -SN SCT015 OVC025
     FM141000 VRB05KT 1SM -SN BKN015
     FM141300 30010KT 4SM -SN BKN025
     FM141500 32007KT P6SM SCT035
     FM141700 31013G21KT P6SM FEW035
      AMD NOT SKED=

USA.gov is the U.S. government's official web portal to all federal, state and local government web resources and services.